Ana Sayfa
METAR-TAF:

METAR-TAF

Havaalanları :

Maun, Botsvana

Enlem: 19-59S, Boylam: 023-25E, yükseklik: 945 m

Güncel hava durumu gözlemi

Rapor saat 14:00 UTC de 1 saat ve 37 dakika önce yapıldı.
Rüzgar kuzey/kuzeybatıdan 6 kt
Sıcaklık 31°C
Nem 36%
Basınç 1014 hPa
Görüş mesafesi 10 km veya daha fazla
3000 ft yükseklikte parçalı bulutlu

METAR: FBMN 211400Z 34006KT 9999 SCT030 31/14 Q1014

Saat: 17:37 (15:37 UTC)

Tahmin

Rapor saat 12:00 UTC de 3 saat ve 37 dakika önce yapıldı.
Ayın 21'si saat 15 UTC'den ayın 21'si saat 24 UTC'ye kadar geçerli Tahmin
Rüzgar doğudan 7 kt
Görüş mesafesi 10 km veya daha fazla
1500 m altında bulut yok ve kümülonimbus yok

TAF: FBMN 211200Z 2115/2124 08007KT CAVOK

4.000'den fazla havaalanı için hava durumu gözlemleri ve tahminleri (METAR ve TAF raporları).

Kullanılabilir istasyonlar harita üzerinde sarı ve kırmızı noktalarla gösterilir.

İstasyonun adını görmek için fareyi noktanın üzerinde gezdirin.

Sonrasında hava gözlem ve tahminlerini görmek için tıklayın.

Haritayı değiştirmek için: yaklaştırmak için siyah artı işaretli yeşil düğmeye ve uzaklaştırmak için de eksi işaretli düğmeye hızla tıklayın; bitişik haritalar için yeşil okları kullanın.


METAR-TAF: